sensor_id;sensor_type;location;lat;lon;timestamp;pressure;altitude;pressure_sealevel;temperature;humidity
71966;BME280;59836;52.132;5.442;2023-12-14T00:01:49;101015.13;;;6.85;100.00
71966;BME280;59836;52.132;5.442;2023-12-14T00:04:15;101012.78;;;6.76;100.00
71966;BME280;59836;52.132;5.442;2023-12-14T00:06:42;101030.72;;;6.71;100.00
71966;BME280;59836;52.132;5.442;2023-12-14T00:09:09;101035.91;;;6.72;100.00
71966;BME280;59836;52.132;5.442;2023-12-14T00:11:39;101037.53;;;6.73;100.00
71966;BME280;59836;52.132;5.442;2023-12-14T00:14:06;101034.84;;;6.73;100.00
71966;BME280;59836;52.132;5.442;2023-12-14T00:16:33;101047.25;;;6.74;100.00
71966;BME280;59836;52.132;5.442;2023-12-14T00:19:00;101054.75;;;6.72;100.00
71966;BME280;59836;52.132;5.442;2023-12-14T00:21:26;101056.16;;;6.75;100.00
71966;BME280;59836;52.132;5.442;2023-12-14T00:23:53;101054.28;;;6.75;100.00
71966;BME280;59836;52.132;5.442;2023-12-14T00:26:20;101062.94;;;6.77;100.00
71966;BME280;59836;52.132;5.442;2023-12-14T00:28:46;101067.50;;;6.77;100.00
71966;BME280;59836;52.132;5.442;2023-12-14T00:31:13;101077.50;;;6.76;100.00
71966;BME280;59836;52.132;5.442;2023-12-14T00:33:40;101083.69;;;6.77;100.00
71966;BME280;59836;52.132;5.442;2023-12-14T00:36:07;101087.09;;;6.72;100.00
71966;BME280;59836;52.132;5.442;2023-12-14T00:38:33;101080.56;;;6.68;100.00
71966;BME280;59836;52.132;5.442;2023-12-14T00:41:00;101081.81;;;6.65;100.00
71966;BME280;59836;52.132;5.442;2023-12-14T00:43:27;101086.75;;;6.69;100.00
71966;BME280;59836;52.132;5.442;2023-12-14T00:45:53;101093.31;;;6.73;100.00
71966;BME280;59836;52.132;5.442;2023-12-14T00:48:20;101088.97;;;6.72;100.00
71966;BME280;59836;52.132;5.442;2023-12-14T00:50:47;101091.81;;;6.65;100.00
71966;BME280;59836;52.132;5.442;2023-12-14T00:53:13;101094.97;;;6.62;100.00
71966;BME280;59836;52.132;5.442;2023-12-14T00:55:40;101091.81;;;6.65;100.00
71966;BME280;59836;52.132;5.442;2023-12-14T00:58:07;101105.03;;;6.67;100.00
71966;BME280;59836;52.132;5.442;2023-12-14T01:00:33;101105.88;;;6.67;100.00
71966;BME280;59836;52.132;5.442;2023-12-14T01:03:00;101113.69;;;6.69;100.00
71966;BME280;59836;52.132;5.442;2023-12-14T01:05:26;101122.38;;;6.71;100.00
71966;BME280;59836;52.132;5.442;2023-12-14T01:07:53;101117.81;;;6.71;100.00
71966;BME280;59836;52.132;5.442;2023-12-14T01:10:20;101126.94;;;6.70;100.00
71966;BME280;59836;52.132;5.442;2023-12-14T01:12:46;101135.03;;;6.70;100.00
71966;BME280;59836;52.132;5.442;2023-12-14T01:15:13;101139.84;;;6.68;100.00
71966;BME280;59836;52.132;5.442;2023-12-14T01:17:40;101149.00;;;6.67;100.00
71966;BME280;59836;52.132;5.442;2023-12-14T01:20:07;101156.03;;;6.68;100.00
71966;BME280;59836;52.132;5.442;2023-12-14T01:22:34;101160.56;;;6.68;100.00
71966;BME280;59836;52.132;5.442;2023-12-14T01:25:01;101154.38;;;6.67;100.00
71966;BME280;59836;52.132;5.442;2023-12-14T01:27:28;101167.59;;;6.69;100.00
71966;BME280;59836;52.132;5.442;2023-12-14T01:29:55;101161.41;;;6.68;100.00
71966;BME280;59836;52.132;5.442;2023-12-14T01:32:21;101170.06;;;6.70;100.00
71966;BME280;59836;52.132;5.442;2023-12-14T01:34:48;101171.13;;;6.69;100.00
71966;BME280;59836;52.132;5.442;2023-12-14T01:37:14;101176.53;;;6.69;100.00
71966;BME280;59836;52.132;5.442;2023-12-14T01:39:41;101173.00;;;6.69;100.00
71966;BME280;59836;52.132;5.442;2023-12-14T01:42:18;101167.84;;;6.67;100.00
71966;BME280;59836;52.132;5.442;2023-12-14T01:44:45;101174.06;;;6.68;100.00
71966;BME280;59836;52.132;5.442;2023-12-14T01:47:12;101178.16;;;6.70;100.00
71966;BME280;59836;52.132;5.442;2023-12-14T01:49:38;101181.91;;;6.69;100.00
71966;BME280;59836;52.132;5.442;2023-12-14T01:52:19;101202.44;;;6.70;100.00
71966;BME280;59836;52.132;5.442;2023-12-14T01:54:53;101206.97;;;6.70;100.00
71966;BME280;59836;52.132;5.442;2023-12-14T01:57:21;101206.19;;;6.69;100.00
71966;BME280;59836;52.132;5.442;2023-12-14T01:59:48;101211.56;;;6.69;100.00
71966;BME280;59836;52.132;5.442;2023-12-14T02:02:14;101215.31;;;6.68;100.00
71966;BME280;59836;52.132;5.442;2023-12-14T02:04:41;101226.56;;;6.65;100.00
71966;BME280;59836;52.132;5.442;2023-12-14T02:07:09;101217.88;;;6.63;100.00
71966;BME280;59836;52.132;5.442;2023-12-14T02:09:39;101232.88;;;6.59;100.00
71966;BME280;59836;52.132;5.442;2023-12-14T02:12:06;101233.09;;;6.57;100.00
71966;BME280;59836;52.132;5.442;2023-12-14T02:14:33;101235.00;;;6.57;100.00
71966;BME280;59836;52.132;5.442;2023-12-14T02:16:59;101240.59;;;6.55;100.00
71966;BME280;59836;52.132;5.442;2023-12-14T02:19:26;101250.91;;;6.58;100.00
71966;BME280;59836;52.132;5.442;2023-12-14T02:21:53;101251.16;;;6.57;100.00
71966;BME280;59836;52.132;5.442;2023-12-14T02:24:20;101259.25;;;6.57;100.00
71966;BME280;59836;52.132;5.442;2023-12-14T02:26:47;101256.56;;;6.57;100.00
71966;BME280;59836;52.132;5.442;2023-12-14T02:29:29;101269.78;;;6.58;100.00
71966;BME280;59836;52.132;5.442;2023-12-14T02:31:55;101276.00;;;6.59;100.00
71966;BME280;59836;52.132;5.442;2023-12-14T02:34:22;101288.06;;;6.56;100.00
71966;BME280;59836;52.132;5.442;2023-12-14T02:36:51;101284.88;;;6.47;100.00
71966;BME280;59836;52.132;5.442;2023-12-14T02:39:18;101300.22;;;6.47;100.00
71966;BME280;59836;52.132;5.442;2023-12-14T02:41:44;101303.28;;;6.50;100.00
71966;BME280;59836;52.132;5.442;2023-12-14T02:44:11;101295.53;;;6.54;100.00
71966;BME280;59836;52.132;5.442;2023-12-14T02:46:38;101306.44;;;6.47;100.00
71966;BME280;59836;52.132;5.442;2023-12-14T02:49:18;101305.59;;;6.47;100.00
71966;BME280;59836;52.132;5.442;2023-12-14T02:51:44;101305.59;;;6.47;100.00
71966;BME280;59836;52.132;5.442;2023-12-14T02:54:11;101307.25;;;6.48;100.00
71966;BME280;59836;52.132;5.442;2023-12-14T02:56:37;101315.13;;;6.49;100.00
71966;BME280;59836;52.132;5.442;2023-12-14T02:59:04;101315.13;;;6.49;100.00
71966;BME280;59836;52.132;5.442;2023-12-14T03:01:34;101325.91;;;6.49;100.00
71966;BME280;59836;52.132;5.442;2023-12-14T03:04:07;101324.25;;;6.48;100.00
71966;BME280;59836;52.132;5.442;2023-12-14T03:06:34;101320.50;;;6.49;100.00
71966;BME280;59836;52.132;5.442;2023-12-14T03:09:00;101326.69;;;6.50;100.00
71966;BME280;59836;52.132;5.442;2023-12-14T03:11:27;101332.69;;;6.52;100.00
71966;BME280;59836;52.132;5.442;2023-12-14T03:13:53;101327.75;;;6.49;100.00
71966;BME280;59836;52.132;5.442;2023-12-14T03:16:21;101336.66;;;6.49;100.00
71966;BME280;59836;52.132;5.442;2023-12-14T03:18:47;101331.28;;;6.49;100.00
71966;BME280;59836;52.132;5.442;2023-12-14T03:21:19;101335.03;;;6.48;100.00
71966;BME280;59836;52.132;5.442;2023-12-14T03:23:46;101339.22;;;6.44;100.00
71966;BME280;59836;52.132;5.442;2023-12-14T03:26:12;101333.00;;;6.44;100.00
71966;BME280;59836;52.132;5.442;2023-12-14T03:28:39;101336.75;;;6.43;100.00
71966;BME280;59836;52.132;5.442;2023-12-14T03:31:06;101339.22;;;6.44;100.00
71966;BME280;59836;52.132;5.442;2023-12-14T03:33:32;101339.22;;;6.44;100.00
71966;BME280;59836;52.132;5.442;2023-12-14T03:35:59;101337.34;;;6.45;100.00
71966;BME280;59836;52.132;5.442;2023-12-14T03:38:25;101332.78;;;6.45;100.00
71966;BME280;59836;52.132;5.442;2023-12-14T03:40:52;101334.91;;;6.43;100.00
71966;BME280;59836;52.132;5.442;2023-12-14T03:43:19;101342.97;;;6.43;100.00
71966;BME280;59836;52.132;5.442;2023-12-14T03:45:45;101335.50;;;6.45;100.00
71966;BME280;59836;52.132;5.442;2023-12-14T03:48:12;101337.34;;;6.45;100.00
71966;BME280;59836;52.132;5.442;2023-12-14T03:50:38;101345.44;;;6.45;100.00
71966;BME280;59836;52.132;5.442;2023-12-14T03:53:05;101341.69;;;6.46;100.00
71966;BME280;59836;52.132;5.442;2023-12-14T03:55:32;101338.78;;;6.47;100.00
71966;BME280;59836;52.132;5.442;2023-12-14T03:57:59;101345.81;;;6.48;100.00
71966;BME280;59836;52.132;5.442;2023-12-14T04:00:25;101338.78;;;6.47;100.00
71966;BME280;59836;52.132;5.442;2023-12-14T04:02:52;101347.91;;;6.46;100.00
71966;BME280;59836;52.132;5.442;2023-12-14T04:05:19;101346.25;;;6.45;100.00
71966;BME280;59836;52.132;5.442;2023-12-14T04:07:45;101356.00;;;6.46;100.00
71966;BME280;59836;52.132;5.442;2023-12-14T04:10:13;101356.22;;;6.45;100.00
71966;BME280;59836;52.132;5.442;2023-12-14T04:12:40;101366.97;;;6.45;100.00
71966;BME280;59836;52.132;5.442;2023-12-14T04:15:08;101374.84;;;6.46;100.00
71966;BME280;59836;52.132;5.442;2023-12-14T04:17:35;101390.19;;;6.46;100.00
71966;BME280;59836;52.132;5.442;2023-12-14T04:20:03;101386.69;;;6.45;100.00
71966;BME280;59836;52.132;5.442;2023-12-14T04:22:32;101399.19;;;6.40;100.00
71966;BME280;59836;52.132;5.442;2023-12-14T04:24:59;101406.22;;;6.41;100.00
71966;BME280;59836;52.132;5.442;2023-12-14T04:27:26;101403.50;;;6.41;100.00
71966;BME280;59836;52.132;5.442;2023-12-14T04:29:59;101409.34;;;6.38;100.00
71966;BME280;59836;52.132;5.442;2023-12-14T04:32:31;101409.34;;;6.38;100.00
71966;BME280;59836;52.132;5.442;2023-12-14T04:34:58;101408.19;;;6.33;100.00
71966;BME280;59836;52.132;5.442;2023-12-14T04:37:31;101419.03;;;6.27;100.00
71966;BME280;59836;52.132;5.442;2023-12-14T04:40:21;101427.72;;;6.29;100.00
71966;BME280;59836;52.132;5.442;2023-12-14T04:42:48;101428.75;;;6.28;100.00
71966;BME280;59836;52.132;5.442;2023-12-14T04:45:14;101434.75;;;6.30;100.00
71966;BME280;59836;52.132;5.442;2023-12-14T04:47:42;101440.13;;;6.30;100.00
71966;BME280;59836;52.132;5.442;2023-12-14T04:50:09;101445.53;;;6.30;100.00
71966;BME280;59836;52.132;5.442;2023-12-14T04:52:37;101457.00;;;6.25;100.00
71966;BME280;59836;52.132;5.442;2023-12-14T04:55:05;101464.22;;;6.25;100.00
71966;BME280;59836;52.132;5.442;2023-12-14T04:57:31;101463.88;;;6.21;100.00
71966;BME280;59836;52.132;5.442;2023-12-14T04:59:58;101472.16;;;6.19;100.00
71966;BME280;59836;52.132;5.442;2023-12-14T05:02:25;101476.28;;;6.22;100.00
71966;BME280;59836;52.132;5.442;2023-12-14T05:04:51;101484.59;;;6.20;100.00
71966;BME280;59836;52.132;5.442;2023-12-14T05:07:18;101491.63;;;6.22;100.00
71966;BME280;59836;52.132;5.442;2023-12-14T05:09:44;101494.69;;;6.25;100.00
71966;BME280;59836;52.132;5.442;2023-12-14T05:12:11;101494.47;;;6.27;100.00
71966;BME280;59836;52.132;5.442;2023-12-14T05:14:37;101490.38;;;6.24;100.00
71966;BME280;59836;52.132;5.442;2023-12-14T05:17:04;101504.44;;;6.26;100.00
71966;BME280;59836;52.132;5.442;2023-12-14T05:19:32;101509.81;;;6.26;100.00
71966;BME280;59836;52.132;5.442;2023-12-14T05:22:03;101521.41;;;6.27;100.00
71966;BME280;59836;52.132;5.442;2023-12-14T05:24:29;101524.09;;;6.27;100.00
71966;BME280;59836;52.132;5.442;2023-12-14T05:26:57;101533.00;;;6.27;100.00
71966;BME280;59836;52.132;5.442;2023-12-14T05:29:23;101545.44;;;6.28;100.00
71966;BME280;59836;52.132;5.442;2023-12-14T05:31:54;101541.91;;;6.28;100.00
71966;BME280;59836;52.132;5.442;2023-12-14T05:34:23;101538.00;;;6.24;100.00
71966;BME280;59836;52.132;5.442;2023-12-14T05:36:49;101546.69;;;6.26;100.00
71966;BME280;59836;52.132;5.442;2023-12-14T05:39:16;101550.22;;;6.26;100.00
71966;BME280;59836;52.132;5.442;2023-12-14T05:41:42;101556.41;;;6.27;100.00
71966;BME280;59836;52.132;5.442;2023-12-14T05:44:09;101547.13;;;6.23;100.00
71966;BME280;59836;52.132;5.442;2023-12-14T05:46:36;101556.88;;;6.24;100.00
71966;BME280;59836;52.132;5.442;2023-12-14T05:49:02;101566.00;;;6.23;100.00
71966;BME280;59836;52.132;5.442;2023-12-14T05:51:30;101559.63;;;6.17;100.00
71966;BME280;59836;52.132;5.442;2023-12-14T05:53:57;101569.97;;;6.20;100.00
71966;BME280;59836;52.132;5.442;2023-12-14T05:56:25;101565.19;;;6.22;100.00
71966;BME280;59836;52.132;5.442;2023-12-14T05:58:51;101569.13;;;6.19;100.00
71966;BME280;59836;52.132;5.442;2023-12-14T06:01:18;101571.81;;;6.19;100.00
71966;BME280;59836;52.132;5.442;2023-12-14T06:03:45;101581.03;;;6.12;100.00
71966;BME280;59836;52.132;5.442;2023-12-14T06:06:12;101585.41;;;6.06;100.00
71966;BME280;59836;52.132;5.442;2023-12-14T06:08:42;101585.41;;;6.06;100.00
71966;BME280;59836;52.132;5.442;2023-12-14T06:11:09;101589.53;;;6.09;100.00
71966;BME280;59836;52.132;5.442;2023-12-14T06:13:36;101602.41;;;6.07;100.00
71966;BME280;59836;52.132;5.442;2023-12-14T06:16:02;101598.25;;;6.04;100.00
71966;BME280;59836;52.132;5.442;2023-12-14T06:18:30;101602.84;;;6.03;100.00
71966;BME280;59836;52.132;5.442;2023-12-14T06:20:57;101608.22;;;6.03;100.00
71966;BME280;59836;52.132;5.442;2023-12-14T06:23:24;101608.84;;;5.99;100.00
71966;BME280;59836;52.132;5.442;2023-12-14T06:25:52;101609.88;;;5.98;100.00
71966;BME280;59836;52.132;5.442;2023-12-14T06:28:18;101627.69;;;5.99;100.00
71966;BME280;59836;52.132;5.442;2023-12-14T06:30:45;101635.75;;;5.99;100.00
71966;BME280;59836;52.132;5.442;2023-12-14T06:33:11;101630.81;;;5.96;100.00
71966;BME280;59836;52.132;5.442;2023-12-14T06:35:38;101637.69;;;5.91;100.00
71966;BME280;59836;52.132;5.442;2023-12-14T06:38:05;101646.59;;;5.92;100.00
71966;BME280;59836;52.132;5.442;2023-12-14T06:40:31;101657.53;;;5.97;100.00
71966;BME280;59836;52.132;5.442;2023-12-14T06:42:58;101658.97;;;6.00;100.00
71966;BME280;59836;52.132;5.442;2023-12-14T06:45:25;101667.03;;;6.00;100.00
71966;BME280;59836;52.132;5.442;2023-12-14T06:47:51;101677.81;;;6.00;100.00
71966;BME280;59836;52.132;5.442;2023-12-14T06:50:18;101674.50;;;5.98;100.00
71966;BME280;59836;52.132;5.442;2023-12-14T06:52:45;101678.25;;;5.97;100.00
71966;BME280;59836;52.132;5.442;2023-12-14T06:55:11;101681.97;;;5.96;100.00
71966;BME280;59836;52.132;5.442;2023-12-14T06:57:39;101685.28;;;5.98;100.00
71966;BME280;59836;52.132;5.442;2023-12-14T07:00:06;101687.78;;;5.93;100.00
71966;BME280;59836;52.132;5.442;2023-12-14T07:02:32;101688.66;;;5.86;100.00
71966;BME280;59836;52.132;5.442;2023-12-14T07:04:59;101694.03;;;5.86;100.00
71966;BME280;59836;52.132;5.442;2023-12-14T07:07:26;101700.28;;;5.87;100.00
71966;BME280;59836;52.132;5.442;2023-12-14T07:09:53;101707.34;;;5.81;100.00
71966;BME280;59836;52.132;5.442;2023-12-14T07:12:19;101714.81;;;5.79;100.00
71966;BME280;59836;52.132;5.442;2023-12-14T07:14:46;101722.28;;;5.77;100.00
71966;BME280;59836;52.132;5.442;2023-12-14T07:17:12;101728.06;;;5.81;100.00
71966;BME280;59836;52.132;5.442;2023-12-14T07:19:39;101737.56;;;5.83;100.00
71966;BME280;59836;52.132;5.442;2023-12-14T07:22:06;101732.16;;;5.83;100.00
71966;BME280;59836;52.132;5.442;2023-12-14T07:24:32;101743.16;;;5.82;100.00
71966;BME280;59836;52.132;5.442;2023-12-14T07:27:14;101746.09;;;5.80;100.00
71966;BME280;59836;52.132;5.442;2023-12-14T07:29:40;101745.47;;;5.78;100.00
71966;BME280;59836;52.132;5.442;2023-12-14T07:32:07;101750.06;;;5.71;100.00
71966;BME280;59836;52.132;5.442;2023-12-14T07:34:34;101748.78;;;5.73;100.00
71966;BME280;59836;52.132;5.442;2023-12-14T07:37:01;101752.16;;;5.69;100.00
71966;BME280;59836;52.132;5.442;2023-12-14T07:39:27;101754.41;;;5.65;100.00
71966;BME280;59836;52.132;5.442;2023-12-14T07:41:54;101760.03;;;5.64;100.00
71966;BME280;59836;52.132;5.442;2023-12-14T07:44:20;101757.13;;;5.65;100.00
71966;BME280;59836;52.132;5.442;2023-12-14T07:46:48;101763.34;;;5.66;100.00
71966;BME280;59836;52.132;5.442;2023-12-14T07:49:14;101769.94;;;5.70;100.00
71966;BME280;59836;52.132;5.442;2023-12-14T07:51:41;101778.63;;;5.72;100.00
71966;BME280;59836;52.132;5.442;2023-12-14T07:54:07;101777.59;;;5.73;100.00
71966;BME280;59836;52.132;5.442;2023-12-14T07:56:34;101777.59;;;5.73;100.00
71966;BME280;59836;52.132;5.442;2023-12-14T07:59:33;101786.72;;;5.72;100.00
71966;BME280;59836;52.132;5.442;2023-12-14T08:02:04;101791.03;;;5.73;100.00
71966;BME280;59836;52.132;5.442;2023-12-14T08:04:30;101787.31;;;5.74;100.00
71966;BME280;59836;52.132;5.442;2023-12-14T08:07:01;101783.59;;;5.75;100.00
71966;BME280;59836;52.132;5.442;2023-12-14T08:09:28;101796.44;;;5.73;100.00
71966;BME280;59836;52.132;5.442;2023-12-14T08:11:54;101796.84;;;5.70;100.00
71966;BME280;59836;52.132;5.442;2023-12-14T08:14:49;101801.81;;;5.73;100.00
71966;BME280;59836;52.132;5.442;2023-12-14T08:17:15;101803.25;;;5.75;100.00
71966;BME280;59836;52.132;5.442;2023-12-14T08:19:43;101802.44;;;5.75;100.00
71966;BME280;59836;52.132;5.442;2023-12-14T08:22:10;101803.91;;;5.71;100.00
71966;BME280;59836;52.132;5.442;2023-12-14T08:24:39;101824.19;;;5.67;100.00
71966;BME280;59836;52.132;5.442;2023-12-14T08:27:05;101824.59;;;5.70;100.00
71966;BME280;59836;52.132;5.442;2023-12-14T08:29:32;101828.72;;;5.73;100.00
71966;BME280;59836;52.132;5.442;2023-12-14T08:31:59;101835.34;;;5.77;100.00
71966;BME280;59836;52.132;5.442;2023-12-14T08:34:27;101839.69;;;5.78;100.00
71966;BME280;59836;52.132;5.442;2023-12-14T08:36:53;101834.50;;;5.76;100.00
71966;BME280;59836;52.132;5.442;2023-12-14T08:39:20;101838.03;;;5.77;100.00
71966;BME280;59836;52.132;5.442;2023-12-14T08:41:47;101832.22;;;5.80;100.00
71966;BME280;59836;52.132;5.442;2023-12-14T08:44:15;101845.22;;;5.83;100.00
71966;BME280;59836;52.132;5.442;2023-12-14T08:46:44;101848.19;;;5.75;100.00
71966;BME280;59836;52.132;5.442;2023-12-14T08:49:11;101847.34;;;5.74;100.00
71966;BME280;59836;52.132;5.442;2023-12-14T08:51:39;101855.66;;;5.73;100.00
71966;BME280;59836;52.132;5.442;2023-12-14T08:54:06;101858.94;;;5.75;100.00
71966;BME280;59836;52.132;5.442;2023-12-14T08:56:33;101864.72;;;5.79;100.00
71966;BME280;59836;52.132;5.442;2023-12-14T08:58:59;101877.78;;;5.75;100.00
71966;BME280;59836;52.132;5.442;2023-12-14T09:01:26;101882.16;;;5.76;100.00
71966;BME280;59836;52.132;5.442;2023-12-14T09:03:53;101875.09;;;5.75;100.00
71966;BME280;59836;52.132;5.442;2023-12-14T09:06:19;101887.31;;;5.78;100.00
71966;BME280;59836;52.132;5.442;2023-12-14T09:08:47;101887.09;;;5.79;100.00
71966;BME280;59836;52.132;5.442;2023-12-14T09:11:13;101884.19;;;5.81;100.00
71966;BME280;59836;52.132;5.442;2023-12-14T09:13:41;101891.22;;;5.82;100.00
71966;BME280;59836;52.132;5.442;2023-12-14T09:16:08;101895.78;;;5.81;100.00
71966;BME280;59836;52.132;5.442;2023-12-14T09:18:35;101903.41;;;5.84;100.00
71966;BME280;59836;52.132;5.442;2023-12-14T09:21:01;101911.50;;;5.84;100.00
71966;BME280;59836;52.132;5.442;2023-12-14T09:23:29;101916.06;;;5.84;100.00
71966;BME280;59836;52.132;5.442;2023-12-14T09:25:56;101913.75;;;5.87;100.00
71966;BME280;59836;52.132;5.442;2023-12-14T09:28:24;101913.16;;;5.85;100.00
71966;BME280;59836;52.132;5.442;2023-12-14T09:30:51;101912.72;;;5.88;100.00
71966;BME280;59836;52.132;5.442;2023-12-14T09:33:17;101922.47;;;5.89;100.00
71966;BME280;59836;52.132;5.442;2023-12-14T09:35:44;101928.69;;;5.90;100.00
71966;BME280;59836;52.132;5.442;2023-12-14T09:38:11;101933.84;;;5.91;100.00
71966;BME280;59836;52.132;5.442;2023-12-14T09:40:41;101929.31;;;5.92;100.00
71966;BME280;59836;52.132;5.442;2023-12-14T09:43:07;101929.50;;;5.90;100.00
71966;BME280;59836;52.132;5.442;2023-12-14T09:45:35;101944.63;;;5.91;100.00
71966;BME280;59836;52.132;5.442;2023-12-14T09:48:03;101949.38;;;5.89;100.00
71966;BME280;59836;52.132;5.442;2023-12-14T09:50:30;101949.59;;;5.88;100.00
71966;BME280;59836;52.132;5.442;2023-12-14T09:52:58;101953.97;;;5.89;100.00
71966;BME280;59836;52.132;5.442;2023-12-14T09:55:24;101956.66;;;5.89;100.00
71966;BME280;59836;52.132;5.442;2023-12-14T09:57:51;101970.31;;;5.87;100.00
71966;BME280;59836;52.132;5.442;2023-12-14T10:00:33;101975.28;;;5.90;100.00
71966;BME280;59836;52.132;5.442;2023-12-14T10:05:43;101989.78;;;5.89;100.00
71966;BME280;59836;52.132;5.442;2023-12-14T10:08:10;101992.88;;;5.93;100.00
71966;BME280;59836;52.132;5.442;2023-12-14T10:10:37;102008.63;;;5.96;100.00
71966;BME280;59836;52.132;5.442;2023-12-14T10:13:03;102006.75;;;5.97;100.00
71966;BME280;59836;52.132;5.442;2023-12-14T10:15:40;102010.06;;;5.99;100.00
71966;BME280;59836;52.132;5.442;2023-12-14T10:18:07;102006.56;;;5.98;100.00
71966;BME280;59836;52.132;5.442;2023-12-14T10:20:34;102000.94;;;6.00;100.00
71966;BME280;59836;52.132;5.442;2023-12-14T10:23:00;101999.94;;;6.01;100.00
71966;BME280;59836;52.132;5.442;2023-12-14T10:25:27;101996.19;;;6.02;100.00
71966;BME280;59836;52.132;5.442;2023-12-14T10:27:53;101994.56;;;6.01;100.00
71966;BME280;59836;52.132;5.442;2023-12-14T10:30:20;101995.78;;;6.05;100.00
71966;BME280;59836;52.132;5.442;2023-12-14T10:32:48;101996.41;;;6.07;100.00
71966;BME280;59836;52.132;5.442;2023-12-14T10:35:16;101990.19;;;6.07;100.00
71966;BME280;59836;52.132;5.442;2023-12-14T10:37:43;101994.75;;;6.06;100.00
71966;BME280;59836;52.132;5.442;2023-12-14T10:40:09;102010.50;;;6.09;100.00
71966;BME280;59836;52.132;5.442;2023-12-14T10:42:42;102003.63;;;6.13;100.00
71966;BME280;59836;52.132;5.442;2023-12-14T10:45:11;102003.44;;;6.15;100.00
71966;BME280;59836;52.132;5.442;2023-12-14T10:47:46;102009.66;;;6.15;100.00
71966;BME280;59836;52.132;5.442;2023-12-14T10:50:15;102006.34;;;6.13;100.00
71966;BME280;59836;52.132;5.442;2023-12-14T10:52:42;102009.66;;;6.15;100.00
71966;BME280;59836;52.132;5.442;2023-12-14T10:55:22;102010.69;;;6.14;100.00
71966;BME280;59836;52.132;5.442;2023-12-14T10:57:51;102010.91;;;6.13;100.00
71966;BME280;59836;52.132;5.442;2023-12-14T11:00:18;102012.75;;;6.12;100.00
71966;BME280;59836;52.132;5.442;2023-12-14T11:02:46;102014.63;;;6.12;100.00
71966;BME280;59836;52.132;5.442;2023-12-14T11:05:14;102009.25;;;6.12;100.00
71966;BME280;59836;52.132;5.442;2023-12-14T11:10:14;102015.25;;;6.14;100.00
71966;BME280;59836;52.132;5.442;2023-12-14T11:12:51;102025.00;;;6.15;100.00
71966;BME280;59836;52.132;5.442;2023-12-14T11:15:19;102039.88;;;6.17;100.00
71966;BME280;59836;52.132;5.442;2023-12-14T11:23:14;102048.59;;;6.19;100.00
71966;BME280;59836;52.132;5.442;2023-12-14T11:25:41;102050.88;;;6.23;100.00
71966;BME280;59836;52.132;5.442;2023-12-14T11:28:12;102047.34;;;6.29;100.00
71966;BME280;59836;52.132;5.442;2023-12-14T11:30:40;102044.81;;;6.47;99.49
71966;BME280;59836;52.132;5.442;2023-12-14T11:33:21;102047.88;;;6.58;99.25
71966;BME280;59836;52.132;5.442;2023-12-14T11:35:47;102044.38;;;6.50;99.63
71966;BME280;59836;52.132;5.442;2023-12-14T11:38:14;102053.09;;;6.46;99.48
71966;BME280;59836;52.132;5.442;2023-12-14T11:40:42;102053.94;;;6.40;99.07
71966;BME280;59836;52.132;5.442;2023-12-14T11:43:09;102059.94;;;6.48;100.00
71966;BME280;59836;52.132;5.442;2023-12-14T11:45:37;102046.03;;;6.52;100.00
71966;BME280;59836;52.132;5.442;2023-12-14T11:48:06;102051.81;;;6.55;100.00
71966;BME280;59836;52.132;5.442;2023-12-14T11:50:33;102052.22;;;6.59;100.00
71966;BME280;59836;52.132;5.442;2023-12-14T11:53:01;102049.34;;;6.54;100.00
71966;BME280;59836;52.132;5.442;2023-12-14T11:55:30;102046.47;;;6.48;99.26
71966;BME280;59836;52.132;5.442;2023-12-14T11:57:58;102055.16;;;6.44;98.09
71966;BME280;59836;52.132;5.442;2023-12-14T12:00:26;102057.25;;;6.42;99.32
71966;BME280;59836;52.132;5.442;2023-12-14T12:03:07;102060.56;;;6.44;99.86
71966;BME280;59836;52.132;5.442;2023-12-14T12:05:39;102058.69;;;6.44;100.00
71966;BME280;59836;52.132;5.442;2023-12-14T12:08:08;102055.16;;;6.44;100.00
71966;BME280;59836;52.132;5.442;2023-12-14T12:10:35;102069.06;;;6.47;100.00
71966;BME280;59836;52.132;5.442;2023-12-14T12:13:07;102066.97;;;6.49;100.00
71966;BME280;59836;52.132;5.442;2023-12-14T12:15:34;102068.00;;;6.48;100.00
71966;BME280;59836;52.132;5.442;2023-12-14T12:18:04;102072.56;;;6.48;100.00
71966;BME280;59836;52.132;5.442;2023-12-14T12:20:31;102065.75;;;6.45;100.00
71966;BME280;59836;52.132;5.442;2023-12-14T12:23:00;102076.28;;;6.47;100.00
71966;BME280;59836;52.132;5.442;2023-12-14T12:25:27;102079.00;;;6.47;100.00
71966;BME280;59836;52.132;5.442;2023-12-14T12:27:54;102075.47;;;6.46;100.00
71966;BME280;59836;52.132;5.442;2023-12-14T12:30:24;102077.94;;;6.48;100.00
71966;BME280;59836;52.132;5.442;2023-12-14T12:32:51;102078.78;;;6.48;100.00
71966;BME280;59836;52.132;5.442;2023-12-14T12:35:18;102075.06;;;6.49;100.00
71966;BME280;59836;52.132;5.442;2023-12-14T12:37:45;102080.44;;;6.49;100.00
71966;BME280;59836;52.132;5.442;2023-12-14T12:40:12;102088.53;;;6.49;100.00
71966;BME280;59836;52.132;5.442;2023-12-14T12:42:41;102080.88;;;6.46;100.00
71966;BME280;59836;52.132;5.442;2023-12-14T12:45:08;102088.13;;;6.46;100.00
71966;BME280;59836;52.132;5.442;2023-12-14T12:47:34;102093.31;;;6.47;100.00
71966;BME280;59836;52.132;5.442;2023-12-14T12:50:01;102100.34;;;6.48;100.00
71966;BME280;59836;52.132;5.442;2023-12-14T12:52:29;102100.13;;;6.50;100.00
71966;BME280;59836;52.132;5.442;2023-12-14T12:54:56;102094.53;;;6.52;100.00
71966;BME280;59836;52.132;5.442;2023-12-14T12:57:22;102096.19;;;6.53;100.00
71966;BME280;59836;52.132;5.442;2023-12-14T12:59:48;102091.84;;;6.52;100.00
71966;BME280;59836;52.132;5.442;2023-12-14T13:02:15;102092.88;;;6.50;100.00
71966;BME280;59836;52.132;5.442;2023-12-14T13:04:42;102089.97;;;6.52;100.00